Allen, Louisiana
Current Conditions -  °F | °C
As of 5:55 AM on Saturday 01 Nov 2014 (Local Time) from KIER Reporting Station
Clear Clear  
Wind Chill: 37°   Ceiling: Unl
Heat Index: 42°   Visibility: 10mi
Dew Point: 30°   Wind: 8mph
Humidity: 64%   Direction: 30°NNE
Pressure: 30.37"   Gusts: NA
Location:  31.8112°N, 93.3051°W
Report Text: KIER 011055Z AUTO 03007KT 10SM CLR 05/M01 A3037 RMK AO2 T00541010
Loading
Personal Weather Stations






























Interactive Weather Map
Tropical Storm Tracking
New forecast layout! Learn more

10-Day Weather Forecast

Advertisements
Track Severe Weather on mobile